sensor_id;sensor_type;location;lat;lon;timestamp;pressure;altitude;pressure_sealevel;temperature;humidity
30935;BME280;51033;42.648;23.292;2022-10-31T00:01:34;94333.41;;;16.33;37.48
30935;BME280;51033;42.648;23.292;2022-10-31T00:04:00;94331.38;;;16.29;37.43
30935;BME280;51033;42.648;23.292;2022-10-31T00:06:26;94307.00;;;16.10;38.01
30935;BME280;51033;42.648;23.292;2022-10-31T00:08:59;94322.22;;;16.30;37.98
30935;BME280;51033;42.648;23.292;2022-10-31T00:11:25;94324.91;;;16.30;37.97
30935;BME280;51033;42.648;23.292;2022-10-31T00:13:51;94315.16;;;16.38;37.55
30935;BME280;51033;42.648;23.292;2022-10-31T00:16:20;94295.91;;;16.24;37.50
30935;BME280;51033;42.648;23.292;2022-10-31T00:18:55;94301.41;;;16.27;37.67
30935;BME280;51033;42.648;23.292;2022-10-31T00:21:21;94305.09;;;16.35;37.52
30935;BME280;51033;42.648;23.292;2022-10-31T00:23:47;94291.56;;;16.19;37.76
30935;BME280;51033;42.648;23.292;2022-10-31T00:26:13;94316.84;;;16.30;37.72
30935;BME280;51033;42.648;23.292;2022-10-31T00:28:39;94324.78;;;16.39;37.52
30935;BME280;51033;42.648;23.292;2022-10-31T00:31:06;94320.44;;;16.35;37.79
30935;BME280;51033;42.648;23.292;2022-10-31T00:33:36;94310.69;;;16.30;37.77
30935;BME280;51033;42.648;23.292;2022-10-31T00:36:04;94306.78;;;16.27;37.94
30935;BME280;51033;42.648;23.292;2022-10-31T00:38:29;94311.72;;;16.38;37.99
30935;BME280;51033;42.648;23.292;2022-10-31T00:40:55;94313.25;;;16.39;37.98
30935;BME280;51033;42.648;23.292;2022-10-31T00:43:20;94303.75;;;16.29;38.05
30935;BME280;51033;42.648;23.292;2022-10-31T00:45:46;94283.06;;;16.05;38.22
30935;BME280;51033;42.648;23.292;2022-10-31T00:48:12;94312.78;;;16.24;37.88
30935;BME280;51033;42.648;23.292;2022-10-31T00:50:37;94308.81;;;16.30;37.92
30935;BME280;51033;42.648;23.292;2022-10-31T00:53:03;94304.88;;;16.16;38.39
30935;BME280;51033;42.648;23.292;2022-10-31T00:55:28;94307.56;;;16.28;38.10
30935;BME280;51033;42.648;23.292;2022-10-31T00:57:54;94284.88;;;16.13;38.26
30935;BME280;51033;42.648;23.292;2022-10-31T01:00:19;94294.81;;;16.13;38.26
30935;BME280;51033;42.648;23.292;2022-10-31T01:02:45;94313.06;;;16.31;38.23
30935;BME280;51033;42.648;23.292;2022-10-31T01:05:10;94296.28;;;16.35;37.97
30935;BME280;51033;42.648;23.292;2022-10-31T01:07:37;94310.94;;;16.37;38.11
30935;BME280;51033;42.648;23.292;2022-10-31T01:10:03;94309.69;;;16.47;38.09
30935;BME280;51033;42.648;23.292;2022-10-31T01:12:29;94307.44;;;16.49;38.01
30935;BME280;51033;42.648;23.292;2022-10-31T01:14:54;94306.56;;;16.45;38.10
30935;BME280;51033;42.648;23.292;2022-10-31T01:17:20;94273.56;;;16.20;37.82
30935;BME280;51033;42.648;23.292;2022-10-31T01:19:45;94299.84;;;16.39;37.96
30935;BME280;51033;42.648;23.292;2022-10-31T01:22:11;94300.50;;;15.99;38.62
30935;BME280;51033;42.648;23.292;2022-10-31T01:24:36;94311.34;;;16.03;38.65
30935;BME280;51033;42.648;23.292;2022-10-31T01:27:02;94321.44;;;16.18;38.67
30935;BME280;51033;42.648;23.292;2022-10-31T01:29:28;94323.19;;;16.14;38.79
30935;BME280;51033;42.648;23.292;2022-10-31T01:31:53;94302.31;;;16.07;38.40
30935;BME280;51033;42.648;23.292;2022-10-31T01:34:19;94304.09;;;16.15;38.70
30935;BME280;51033;42.648;23.292;2022-10-31T01:36:44;94321.66;;;16.37;38.54
30935;BME280;51033;42.648;23.292;2022-10-31T01:39:13;94320.09;;;16.36;38.75
30935;BME280;51033;42.648;23.292;2022-10-31T01:41:42;94308.81;;;16.30;38.62
30935;BME280;51033;42.648;23.292;2022-10-31T01:47:04;94332.06;;;16.51;38.46
30935;BME280;51033;42.648;23.292;2022-10-31T01:49:39;94318.72;;;16.54;38.48
30935;BME280;51033;42.648;23.292;2022-10-31T01:57:38;94340.31;;;16.70;38.31
30935;BME280;51033;42.648;23.292;2022-10-31T02:00:08;94328.09;;;16.72;38.15
30935;BME280;51033;42.648;23.292;2022-10-31T02:02:33;94334.69;;;16.75;38.11
30935;BME280;51033;42.648;23.292;2022-10-31T02:05:02;94326.31;;;16.77;38.27
30935;BME280;51033;42.648;23.292;2022-10-31T02:07:34;94317.25;;;16.81;38.07
30935;BME280;51033;42.648;23.292;2022-10-31T02:10:02;94307.59;;;16.80;38.06
30935;BME280;51033;42.648;23.292;2022-10-31T02:12:30;94320.41;;;16.99;37.97
30935;BME280;51033;42.648;23.292;2022-10-31T02:14:57;94296.00;;;16.76;38.13
30935;BME280;51033;42.648;23.292;2022-10-31T02:17:22;94312.38;;;16.87;38.25
30935;BME280;51033;42.648;23.292;2022-10-31T02:22:48;94311.81;;;16.93;38.05
30935;BME280;51033;42.648;23.292;2022-10-31T02:33:49;94307.50;;;16.77;38.07
30935;BME280;51033;42.648;23.292;2022-10-31T02:36:23;94318.34;;;16.80;38.02
30935;BME280;51033;42.648;23.292;2022-10-31T02:39:08;94337.81;;;16.89;38.07
30935;BME280;51033;42.648;23.292;2022-10-31T02:41:46;94337.94;;;16.81;38.15
30935;BME280;51033;42.648;23.292;2022-10-31T02:44:37;94356.97;;;16.75;38.53
30935;BME280;51033;42.648;23.292;2022-10-31T02:47:11;94343.91;;;16.62;38.70
30935;BME280;51033;42.648;23.292;2022-10-31T02:52:17;94334.97;;;16.46;39.44
30935;BME280;51033;42.648;23.292;2022-10-31T02:54:44;94336.09;;;16.45;39.31
30935;BME280;51033;42.648;23.292;2022-10-31T02:57:10;94356.31;;;16.54;39.28
30935;BME280;51033;42.648;23.292;2022-10-31T02:59:39;94333.84;;;16.35;39.85
30935;BME280;51033;42.648;23.292;2022-10-31T03:13:38;94369.19;;;16.49;39.71
30935;BME280;51033;42.648;23.292;2022-10-31T03:16:16;94343.78;;;16.22;40.02
30935;BME280;51033;42.648;23.292;2022-10-31T03:18:50;94346.38;;;16.30;39.78
30935;BME280;51033;42.648;23.292;2022-10-31T03:21:26;94366.41;;;16.45;39.87
30935;BME280;51033;42.648;23.292;2022-10-31T03:23:56;94353.19;;;16.40;40.41
30935;BME280;51033;42.648;23.292;2022-10-31T03:26:23;94367.88;;;16.43;40.04
30935;BME280;51033;42.648;23.292;2022-10-31T03:28:57;94372.13;;;16.31;40.28
30935;BME280;51033;42.648;23.292;2022-10-31T03:31:28;94370.53;;;16.30;40.09
30935;BME280;51033;42.648;23.292;2022-10-31T03:33:58;94349.81;;;16.07;40.20
30935;BME280;51033;42.648;23.292;2022-10-31T03:36:25;94367.13;;;16.09;40.63
30935;BME280;51033;42.648;23.292;2022-10-31T03:38:52;94369.16;;;16.12;40.33
30935;BME280;51033;42.648;23.292;2022-10-31T03:41:22;94312.78;;;15.76;40.40
30935;BME280;51033;42.648;23.292;2022-10-31T03:43:59;94350.78;;;15.90;40.15
30935;BME280;51033;42.648;23.292;2022-10-31T03:46:27;94361.75;;;15.97;40.38
30935;BME280;51033;42.648;23.292;2022-10-31T03:48:52;94379.00;;;16.08;40.50
30935;BME280;51033;42.648;23.292;2022-10-31T03:54:02;94379.09;;;16.00;40.48
30935;BME280;51033;42.648;23.292;2022-10-31T03:56:49;94365.56;;;15.84;40.47
30935;BME280;51033;42.648;23.292;2022-10-31T03:59:28;94388.81;;;16.04;40.58
30935;BME280;51033;42.648;23.292;2022-10-31T04:01:59;94390.28;;;16.02;40.65
30935;BME280;51033;42.648;23.292;2022-10-31T04:04:28;94367.56;;;15.87;40.91
30935;BME280;51033;42.648;23.292;2022-10-31T04:06:56;94378.06;;;15.92;40.79
30935;BME280;51033;42.648;23.292;2022-10-31T04:09:22;94363.97;;;15.83;40.82
30935;BME280;51033;42.648;23.292;2022-10-31T04:11:53;94371.34;;;15.86;40.63
30935;BME280;51033;42.648;23.292;2022-10-31T04:14:20;94367.22;;;15.88;41.37
30935;BME280;51033;42.648;23.292;2022-10-31T04:16:47;94387.81;;;15.97;41.40
30935;BME280;51033;42.648;23.292;2022-10-31T04:19:12;94381.88;;;15.91;41.50
30935;BME280;51033;42.648;23.292;2022-10-31T04:21:38;94366.41;;;15.76;41.80
30935;BME280;51033;42.648;23.292;2022-10-31T04:24:04;94402.22;;;15.92;41.97
30935;BME280;51033;42.648;23.292;2022-10-31T04:26:29;94354.53;;;15.65;42.01
30935;BME280;51033;42.648;23.292;2022-10-31T04:28:54;94384.97;;;15.81;42.36
30935;BME280;51033;42.648;23.292;2022-10-31T04:31:20;94400.41;;;15.84;42.19
30935;BME280;51033;42.648;23.292;2022-10-31T04:33:45;94384.28;;;15.72;42.62
30935;BME280;51033;42.648;23.292;2022-10-31T04:36:11;94397.94;;;15.79;42.57
30935;BME280;51033;42.648;23.292;2022-10-31T04:38:36;94390.53;;;15.76;42.45
30935;BME280;51033;42.648;23.292;2022-10-31T04:41:04;94399.06;;;15.78;42.43
30935;BME280;51033;42.648;23.292;2022-10-31T04:43:30;94405.44;;;15.85;42.59
30935;BME280;51033;42.648;23.292;2022-10-31T04:45:55;94406.88;;;15.83;42.54
30935;BME280;51033;42.648;23.292;2022-10-31T04:48:20;94385.59;;;15.66;42.68
30935;BME280;51033;42.648;23.292;2022-10-31T04:50:46;94371.50;;;15.57;42.84
30935;BME280;51033;42.648;23.292;2022-10-31T04:53:11;94392.53;;;15.67;42.66
30935;BME280;51033;42.648;23.292;2022-10-31T04:55:37;94384.13;;;15.56;43.14
30935;BME280;51033;42.648;23.292;2022-10-31T04:58:02;94410.63;;;15.70;43.16
30935;BME280;51033;42.648;23.292;2022-10-31T05:00:27;94396.41;;;15.57;43.21
30935;BME280;51033;42.648;23.292;2022-10-31T05:02:55;94412.75;;;15.64;43.13
30935;BME280;51033;42.648;23.292;2022-10-31T05:05:25;94400.28;;;15.48;43.31
30935;BME280;51033;42.648;23.292;2022-10-31T05:07:51;94418.53;;;15.54;43.18
30935;BME280;51033;42.648;23.292;2022-10-31T05:10:19;94402.84;;;15.44;43.37
30935;BME280;51033;42.648;23.292;2022-10-31T05:12:47;94430.69;;;15.52;43.64
30935;BME280;51033;42.648;23.292;2022-10-31T05:15:13;94423.69;;;15.38;43.64
30935;BME280;51033;42.648;23.292;2022-10-31T05:17:38;94416.41;;;15.39;43.69
30935;BME280;51033;42.648;23.292;2022-10-31T05:20:04;94433.28;;;15.39;44.09
30935;BME280;51033;42.648;23.292;2022-10-31T05:22:29;94421.50;;;15.32;44.32
30935;BME280;51033;42.648;23.292;2022-10-31T05:24:55;94437.88;;;15.39;44.44
30935;BME280;51033;42.648;23.292;2022-10-31T05:27:20;94442.44;;;15.38;44.17
30935;BME280;51033;42.648;23.292;2022-10-31T05:29:46;94412.63;;;15.19;44.65
30935;BME280;51033;42.648;23.292;2022-10-31T05:32:11;94406.63;;;15.22;44.32
30935;BME280;51033;42.648;23.292;2022-10-31T05:34:37;94411.34;;;15.25;44.56
30935;BME280;51033;42.648;23.292;2022-10-31T05:37:02;94441.31;;;15.39;44.23
30935;BME280;51033;42.648;23.292;2022-10-31T05:39:27;94441.53;;;15.34;44.42
30935;BME280;51033;42.648;23.292;2022-10-31T05:41:53;94450.78;;;15.37;44.08
30935;BME280;51033;42.648;23.292;2022-10-31T05:44:18;94434.78;;;15.28;44.26
30935;BME280;51033;42.648;23.292;2022-10-31T05:46:46;94456.28;;;15.40;44.12
30935;BME280;51033;42.648;23.292;2022-10-31T05:49:11;94448.44;;;15.35;44.10
30935;BME280;51033;42.648;23.292;2022-10-31T05:51:36;94430.41;;;15.24;44.32
30935;BME280;51033;42.648;23.292;2022-10-31T05:54:02;94459.16;;;15.35;44.41
30935;BME280;51033;42.648;23.292;2022-10-31T05:56:27;94435.66;;;15.20;44.11
30935;BME280;51033;42.648;23.292;2022-10-31T05:58:52;94442.22;;;15.23;44.25
30935;BME280;51033;42.648;23.292;2022-10-31T06:01:18;94447.13;;;15.21;44.37
30935;BME280;51033;42.648;23.292;2022-10-31T06:03:43;94433.78;;;15.12;44.62
30935;BME280;51033;42.648;23.292;2022-10-31T06:06:09;94460.31;;;15.26;44.66
30935;BME280;51033;42.648;23.292;2022-10-31T06:08:34;94468.19;;;15.31;44.45
30935;BME280;51033;42.648;23.292;2022-10-31T06:10:59;94454.13;;;15.13;44.06
30935;BME280;51033;42.648;23.292;2022-10-31T06:13:25;94452.69;;;15.16;44.26
30935;BME280;51033;42.648;23.292;2022-10-31T06:15:50;94479.84;;;15.35;44.37
30935;BME280;51033;42.648;23.292;2022-10-31T06:18:15;94472.13;;;15.33;44.20
30935;BME280;51033;42.648;23.292;2022-10-31T06:20:41;94460.47;;;15.29;43.96
30935;BME280;51033;42.648;23.292;2022-10-31T06:23:06;94456.34;;;15.32;43.99
30935;BME280;51033;42.648;23.292;2022-10-31T06:25:32;94461.06;;;15.35;43.97
30935;BME280;51033;42.648;23.292;2022-10-31T06:27:58;94494.38;;;15.55;44.07
30935;BME280;51033;42.648;23.292;2022-10-31T06:30:24;94470.66;;;15.44;43.70
30935;BME280;51033;42.648;23.292;2022-10-31T06:32:50;94508.03;;;15.62;43.76
30935;BME280;51033;42.648;23.292;2022-10-31T06:35:15;94476.19;;;15.39;43.91
30935;BME280;51033;42.648;23.292;2022-10-31T06:37:40;94506.22;;;15.54;44.00
30935;BME280;51033;42.648;23.292;2022-10-31T06:40:06;94503.56;;;15.66;43.86
30935;BME280;51033;42.648;23.292;2022-10-31T06:42:32;94487.44;;;15.54;44.01
30935;BME280;51033;42.648;23.292;2022-10-31T06:44:57;94504.16;;;15.51;44.08
30935;BME280;51033;42.648;23.292;2022-10-31T06:47:22;94492.53;;;15.46;43.82
30935;BME280;51033;42.648;23.292;2022-10-31T06:49:48;94496.84;;;15.60;43.79
30935;BME280;51033;42.648;23.292;2022-10-31T06:52:13;94508.31;;;15.69;44.00
30935;BME280;51033;42.648;23.292;2022-10-31T06:54:39;94498.81;;;15.71;43.86
30935;BME280;51033;42.648;23.292;2022-10-31T06:57:04;94508.81;;;15.83;44.06
30935;BME280;51033;42.648;23.292;2022-10-31T06:59:29;94502.34;;;15.84;43.91
30935;BME280;51033;42.648;23.292;2022-10-31T07:01:55;94503.38;;;15.92;43.45
30935;BME280;51033;42.648;23.292;2022-10-31T07:04:22;94450.50;;;15.59;43.72
30935;BME280;51033;42.648;23.292;2022-10-31T07:06:50;94516.53;;;15.64;44.70
30935;BME280;51033;42.648;23.292;2022-10-31T07:09:16;94491.94;;;15.62;44.18
30935;BME280;51033;42.648;23.292;2022-10-31T07:11:41;94513.72;;;15.81;44.42
30935;BME280;51033;42.648;23.292;2022-10-31T07:14:06;94510.81;;;15.86;43.89
30935;BME280;51033;42.648;23.292;2022-10-31T07:16:32;94499.84;;;15.79;44.16
30935;BME280;51033;42.648;23.292;2022-10-31T07:18:57;94514.88;;;15.92;43.66
30935;BME280;51033;42.648;23.292;2022-10-31T07:21:22;94511.09;;;15.93;43.42
30935;BME280;51033;42.648;23.292;2022-10-31T07:23:48;94506.63;;;15.97;43.11
30935;BME280;51033;42.648;23.292;2022-10-31T07:26:14;94493.53;;;15.96;43.48
30935;BME280;51033;42.648;23.292;2022-10-31T07:28:39;94462.13;;;15.96;43.16
30935;BME280;51033;42.648;23.292;2022-10-31T07:31:05;94475.25;;;16.10;43.08
30935;BME280;51033;42.648;23.292;2022-10-31T07:33:30;94472.72;;;16.13;42.75
30935;BME280;51033;42.648;23.292;2022-10-31T07:35:55;94471.34;;;16.19;42.81
30935;BME280;51033;42.648;23.292;2022-10-31T07:38:21;94465.34;;;16.22;42.84
30935;BME280;51033;42.648;23.292;2022-10-31T07:40:50;94443.41;;;16.08;42.74
30935;BME280;51033;42.648;23.292;2022-10-31T07:43:16;94474.59;;;16.13;43.04
30935;BME280;51033;42.648;23.292;2022-10-31T07:45:41;94497.28;;;16.36;43.27
30935;BME280;51033;42.648;23.292;2022-10-31T07:48:08;94471.81;;;16.21;42.81
30935;BME280;51033;42.648;23.292;2022-10-31T07:50:33;94443.03;;;15.98;42.92
30935;BME280;51033;42.648;23.292;2022-10-31T07:53:03;94491.22;;;16.39;43.07
30935;BME280;51033;42.648;23.292;2022-10-31T07:55:29;94474.94;;;16.23;43.06
30935;BME280;51033;42.648;23.292;2022-10-31T07:58:16;94488.09;;;16.37;43.34
30935;BME280;51033;42.648;23.292;2022-10-31T08:00:43;94445.19;;;16.16;43.21
30935;BME280;51033;42.648;23.292;2022-10-31T08:03:11;94497.84;;;16.54;43.30
30935;BME280;51033;42.648;23.292;2022-10-31T08:05:37;94507.94;;;16.57;43.38
30935;BME280;51033;42.648;23.292;2022-10-31T08:08:04;94468.88;;;16.47;43.04
30935;BME280;51033;42.648;23.292;2022-10-31T08:10:30;94504.81;;;16.79;42.77
30935;BME280;51033;42.648;23.292;2022-10-31T08:13:01;94490.50;;;16.75;42.43
30935;BME280;51033;42.648;23.292;2022-10-31T08:15:28;94493.38;;;16.82;42.17
30935;BME280;51033;42.648;23.292;2022-10-31T08:17:53;94481.53;;;16.71;42.18
30935;BME280;51033;42.648;23.292;2022-10-31T08:20:20;94489.38;;;16.88;42.45
30935;BME280;51033;42.648;23.292;2022-10-31T08:22:55;94510.19;;;17.03;42.11
30935;BME280;51033;42.648;23.292;2022-10-31T08:25:22;94505.97;;;17.14;42.07
30935;BME280;51033;42.648;23.292;2022-10-31T08:27:54;94501.91;;;17.08;42.61
30935;BME280;51033;42.648;23.292;2022-10-31T08:30:22;94505.06;;;17.10;42.25
30935;BME280;51033;42.648;23.292;2022-10-31T08:32:57;94503.25;;;17.27;42.07
30935;BME280;51033;42.648;23.292;2022-10-31T08:35:23;94503.72;;;17.16;42.63
30935;BME280;51033;42.648;23.292;2022-10-31T08:37:55;94499.34;;;17.24;42.04
30935;BME280;51033;42.648;23.292;2022-10-31T08:40:21;94499.53;;;17.31;41.95
30935;BME280;51033;42.648;23.292;2022-10-31T08:42:47;94466.41;;;17.27;41.67
30935;BME280;51033;42.648;23.292;2022-10-31T08:45:12;94497.81;;;17.51;41.60
30935;BME280;51033;42.648;23.292;2022-10-31T08:47:38;94472.34;;;17.33;41.20
30935;BME280;51033;42.648;23.292;2022-10-31T08:50:03;94468.94;;;17.48;41.35
30935;BME280;51033;42.648;23.292;2022-10-31T08:52:29;94499.06;;;17.53;41.12
30935;BME280;51033;42.648;23.292;2022-10-31T08:54:54;94470.94;;;17.51;41.21
30935;BME280;51033;42.648;23.292;2022-10-31T08:57:19;94495.53;;;17.77;40.92
30935;BME280;51033;42.648;23.292;2022-10-31T08:59:45;94496.41;;;17.81;41.53
30935;BME280;51033;42.648;23.292;2022-10-31T09:02:10;94488.47;;;17.73;41.40
30935;BME280;51033;42.648;23.292;2022-10-31T09:04:36;94478.69;;;17.80;41.07
30935;BME280;51033;42.648;23.292;2022-10-31T09:07:01;94487.38;;;17.89;41.00
30935;BME280;51033;42.648;23.292;2022-10-31T09:09:26;94452.09;;;17.63;41.19
30935;BME280;51033;42.648;23.292;2022-10-31T09:11:52;94469.06;;;17.79;41.26
30935;BME280;51033;42.648;23.292;2022-10-31T09:14:17;94488.59;;;18.04;41.02
30935;BME280;51033;42.648;23.292;2022-10-31T09:16:42;94489.63;;;17.99;40.85
30935;BME280;51033;42.648;23.292;2022-10-31T09:19:08;94458.06;;;17.84;41.37
30935;BME280;51033;42.648;23.292;2022-10-31T09:21:33;94426.13;;;17.55;41.28
30935;BME280;51033;42.648;23.292;2022-10-31T09:23:58;94481.78;;;17.94;41.40
30935;BME280;51033;42.648;23.292;2022-10-31T09:26:24;94488.72;;;18.08;41.43
30935;BME280;51033;42.648;23.292;2022-10-31T09:28:49;94471.78;;;18.07;41.33
30935;BME280;51033;42.648;23.292;2022-10-31T09:31:15;94463.53;;;18.16;41.08
30935;BME280;51033;42.648;23.292;2022-10-31T09:33:40;94446.69;;;18.19;40.62
30935;BME280;51033;42.648;23.292;2022-10-31T09:36:07;94462.25;;;18.25;40.15
30935;BME280;51033;42.648;23.292;2022-10-31T09:38:32;94475.91;;;18.48;40.38
30935;BME280;51033;42.648;23.292;2022-10-31T09:51:35;94482.47;;;18.78;39.84
30935;BME280;51033;42.648;23.292;2022-10-31T09:56:28;94466.03;;;18.83;40.17
30935;BME280;51033;42.648;23.292;2022-10-31T09:58:58;94477.13;;;18.98;39.43
30935;BME280;51033;42.648;23.292;2022-10-31T10:01:34;94469.75;;;19.10;39.58
30935;BME280;51033;42.648;23.292;2022-10-31T10:04:17;94467.13;;;19.14;39.06
30935;BME280;51033;42.648;23.292;2022-10-31T10:06:46;94469.97;;;19.21;38.74
30935;BME280;51033;42.648;23.292;2022-10-31T10:09:13;94466.75;;;19.31;38.85
30935;BME280;51033;42.648;23.292;2022-10-31T10:22:12;94435.13;;;19.31;37.15
30935;BME280;51033;42.648;23.292;2022-10-31T10:32:48;94443.78;;;19.75;36.57
30935;BME280;51033;42.648;23.292;2022-10-31T10:38:00;94436.03;;;19.93;35.50
30935;BME280;51033;42.648;23.292;2022-10-31T10:40:27;94433.47;;;20.00;35.43
30935;BME280;51033;42.648;23.292;2022-10-31T10:43:00;94427.72;;;20.02;35.28
30935;BME280;51033;42.648;23.292;2022-10-31T10:57:04;94418.56;;;20.29;35.38
30935;BME280;51033;42.648;23.292;2022-10-31T10:59:34;94409.41;;;20.34;35.29
30935;BME280;51033;42.648;23.292;2022-10-31T11:02:00;94425.09;;;20.47;34.85
30935;BME280;51033;42.648;23.292;2022-10-31T11:04:34;94420.25;;;20.60;34.83
30935;BME280;51033;42.648;23.292;2022-10-31T11:07:07;94416.94;;;20.70;33.91
30935;BME280;51033;42.648;23.292;2022-10-31T11:09:34;94387.78;;;20.56;33.88
30935;BME280;51033;42.648;23.292;2022-10-31T11:12:05;94385.56;;;20.62;34.49
30935;BME280;51033;42.648;23.292;2022-10-31T11:14:37;94407.66;;;20.68;33.69
30935;BME280;51033;42.648;23.292;2022-10-31T11:17:47;94409.00;;;20.81;34.10
30935;BME280;51033;42.648;23.292;2022-10-31T11:22:41;94396.91;;;20.71;34.22
30935;BME280;51033;42.648;23.292;2022-10-31T11:27:45;94377.75;;;20.57;34.08
30935;BME280;51033;42.648;23.292;2022-10-31T11:30:12;94377.97;;;20.71;33.58
30935;BME280;51033;42.648;23.292;2022-10-31T11:32:43;94398.88;;;20.97;33.54
30935;BME280;51033;42.648;23.292;2022-10-31T11:35:15;94392.41;;;21.05;33.68
30935;BME280;51033;42.648;23.292;2022-10-31T11:37:44;94383.19;;;21.10;33.60
30935;BME280;51033;42.648;23.292;2022-10-31T11:40:18;94386.16;;;21.01;33.50
30935;BME280;51033;42.648;23.292;2022-10-31T11:42:44;94367.38;;;20.85;33.63
30935;BME280;51033;42.648;23.292;2022-10-31T11:45:26;94382.31;;;21.02;33.67
30935;BME280;51033;42.648;23.292;2022-10-31T11:47:54;94356.25;;;20.64;33.24
30935;BME280;51033;42.648;23.292;2022-10-31T11:50:23;94377.72;;;20.80;33.68
30935;BME280;51033;42.648;23.292;2022-10-31T11:52:50;94376.69;;;20.88;33.84
30935;BME280;51033;42.648;23.292;2022-10-31T11:55:29;94387.31;;;21.00;33.87
30935;BME280;51033;42.648;23.292;2022-10-31T11:57:56;94361.41;;;20.99;33.94
30935;BME280;51033;42.648;23.292;2022-10-31T12:00:32;94377.31;;;21.04;33.18
30935;BME280;51033;42.648;23.292;2022-10-31T12:05:47;94354.22;;;21.10;33.36
30935;BME280;51033;42.648;23.292;2022-10-31T12:08:15;94353.25;;;21.25;33.30
30935;BME280;51033;42.648;23.292;2022-10-31T12:10:58;94368.84;;;21.35;32.75
30935;BME280;51033;42.648;23.292;2022-10-31T12:19:17;94363.34;;;21.28;33.44
30935;BME280;51033;42.648;23.292;2022-10-31T12:21:56;94349.50;;;21.33;33.22
30935;BME280;51033;42.648;23.292;2022-10-31T12:27:48;94361.00;;;21.57;33.12
30935;BME280;51033;42.648;23.292;2022-10-31T12:30:15;94351.38;;;21.59;33.84
30935;BME280;51033;42.648;23.292;2022-10-31T12:41:30;94361.84;;;21.98;32.46
30935;BME280;51033;42.648;23.292;2022-10-31T12:54:38;94331.47;;;21.78;31.75
30935;BME280;51033;42.648;23.292;2022-10-31T12:57:45;94358.03;;;22.06;34.13
30935;BME280;51033;42.648;23.292;2022-10-31T13:00:14;94350.84;;;21.80;32.77
30935;BME280;51033;42.648;23.292;2022-10-31T13:05:46;94366.91;;;21.66;34.28
30935;BME280;51033;42.648;23.292;2022-10-31T13:08:13;94358.28;;;21.57;34.04
30935;BME280;51033;42.648;23.292;2022-10-31T13:10:43;94346.44;;;21.35;33.63
30935;BME280;51033;42.648;23.292;2022-10-31T13:13:25;94350.75;;;21.43;33.56
30935;BME280;51033;42.648;23.292;2022-10-31T13:15:57;94347.28;;;21.42;33.70
30935;BME280;51033;42.648;23.292;2022-10-31T13:18:30;94358.91;;;21.46;33.58
30935;BME280;51033;42.648;23.292;2022-10-31T13:20:58;94325.56;;;21.35;33.47
30935;BME280;51033;42.648;23.292;2022-10-31T13:23:30;94351.41;;;21.63;33.12
30935;BME280;51033;42.648;23.292;2022-10-31T13:25:59;94347.41;;;21.53;33.82
30935;BME280;51033;42.648;23.292;2022-10-31T13:28:46;94349.78;;;21.55;33.77
30935;BME280;51033;42.648;23.292;2022-10-31T13:31:12;94334.50;;;21.39;33.42
30935;BME280;51033;42.648;23.292;2022-10-31T13:33:47;94354.25;;;21.43;34.09
30935;BME280;51033;42.648;23.292;2022-10-31T13:36:29;94349.78;;;21.55;34.14
30935;BME280;51033;42.648;23.292;2022-10-31T13:39:20;94333.03;;;21.45;33.24
30935;BME280;51033;42.648;23.292;2022-10-31T13:41:52;94317.84;;;21.37;33.71
30935;BME280;51033;42.648;23.292;2022-10-31T13:44:23;94359.13;;;21.61;34.62
30935;BME280;51033;42.648;23.292;2022-10-31T13:46:50;94355.19;;;21.55;33.71
30935;BME280;51033;42.648;23.292;2022-10-31T13:52:16;94312.41;;;21.34;33.69
30935;BME280;51033;42.648;23.292;2022-10-31T13:54:47;94344.97;;;21.41;33.46
30935;BME280;51033;42.648;23.292;2022-10-31T13:57:30;94352.41;;;21.51;33.77
30935;BME280;51033;42.648;23.292;2022-10-31T14:00:00;94352.78;;;21.50;33.65
30935;BME280;51033;42.648;23.292;2022-10-31T14:02:29;94352.50;;;21.55;33.62
30935;BME280;51033;42.648;23.292;2022-10-31T14:05:05;94343.09;;;21.49;34.10
30935;BME280;51033;42.648;23.292;2022-10-31T14:07:32;94346.81;;;21.37;33.87
30935;BME280;51033;42.648;23.292;2022-10-31T14:10:05;94362.41;;;21.17;35.41
30935;BME280;51033;42.648;23.292;2022-10-31T14:12:44;94360.81;;;21.13;34.86
30935;BME280;51033;42.648;23.292;2022-10-31T14:15:26;94357.13;;;20.98;34.77
30935;BME280;51033;42.648;23.292;2022-10-31T14:18:04;94341.44;;;20.81;34.78
30935;BME280;51033;42.648;23.292;2022-10-31T14:20:40;94360.59;;;20.95;34.92
30935;BME280;51033;42.648;23.292;2022-10-31T14:25:53;94365.56;;;20.93;34.99
30935;BME280;51033;42.648;23.292;2022-10-31T14:28:32;94354.31;;;20.87;35.25
30935;BME280;51033;42.648;23.292;2022-10-31T14:30:59;94347.50;;;20.74;34.91
30935;BME280;51033;42.648;23.292;2022-10-31T14:33:27;94346.25;;;20.68;35.17
30935;BME280;51033;42.648;23.292;2022-10-31T14:36:18;94354.75;;;20.67;35.00
30935;BME280;51033;42.648;23.292;2022-10-31T14:39:07;94364.00;;;20.66;35.23
30935;BME280;51033;42.648;23.292;2022-10-31T14:52:01;94368.81;;;20.30;35.83
30935;BME280;51033;42.648;23.292;2022-10-31T14:54:38;94361.03;;;20.25;35.76
30935;BME280;51033;42.648;23.292;2022-10-31T14:57:08;94372.22;;;20.24;35.75
30935;BME280;51033;42.648;23.292;2022-10-31T14:59:43;94368.56;;;20.16;35.74
30935;BME280;51033;42.648;23.292;2022-10-31T15:05:19;94330.91;;;19.81;36.13
30935;BME280;51033;42.648;23.292;2022-10-31T15:07:54;94351.03;;;19.84;36.42
30935;BME280;51033;42.648;23.292;2022-10-31T15:10:32;94375.44;;;19.91;36.39
30935;BME280;51033;42.648;23.292;2022-10-31T15:13:29;94370.91;;;19.75;36.51
30935;BME280;51033;42.648;23.292;2022-10-31T15:15:55;94377.31;;;19.67;36.69
30935;BME280;51033;42.648;23.292;2022-10-31T15:18:26;94326.34;;;19.05;37.08
30935;BME280;51033;42.648;23.292;2022-10-31T15:20:53;94376.41;;;19.41;37.49